createdAt,value
2017-07-25T00:00:00.749Z,18.78
2017-07-25T00:00:41.638Z,18.73
2017-07-25T00:01:22.538Z,18.73
2017-07-25T00:02:03.417Z,18.74
2017-07-25T00:02:44.309Z,18.66
2017-07-25T00:03:25.204Z,18.77
2017-07-25T00:04:06.077Z,18.83
2017-07-25T00:04:46.963Z,18.86
2017-07-25T00:05:27.844Z,18.86
2017-07-25T00:06:08.732Z,18.86
2017-07-25T00:06:49.636Z,18.81
2017-07-25T00:07:30.495Z,18.89
2017-07-25T00:08:11.407Z,18.88
2017-07-25T00:08:52.289Z,18.84
2017-07-25T00:09:33.174Z,18.84
2017-07-25T00:10:14.064Z,18.93
2017-07-25T00:10:54.961Z,18.89
2017-07-25T00:11:35.839Z,18.7
2017-07-25T00:12:16.730Z,18.75
2017-07-25T00:12:57.637Z,18.81
2017-07-25T00:13:38.523Z,18.88
2017-07-25T00:14:19.424Z,18.88
2017-07-25T00:15:00.318Z,18.88
2017-07-25T00:15:41.204Z,18.81
2017-07-25T00:16:22.106Z,18.84
2017-07-25T00:17:02.995Z,18.95
2017-07-25T00:17:43.879Z,18.92
2017-07-25T00:18:24.769Z,18.92
2017-07-25T00:19:05.664Z,18.83
2017-07-25T00:19:46.552Z,18.74
2017-07-25T00:20:27.446Z,18.7
2017-07-25T00:21:08.340Z,18.7
2017-07-25T00:21:49.225Z,18.66
2017-07-25T00:22:30.123Z,18.71
2017-07-25T00:23:11.015Z,18.86
2017-07-25T00:23:51.902Z,18.86
2017-07-25T00:24:32.793Z,18.95
2017-07-25T00:25:13.691Z,18.93
2017-07-25T00:25:54.579Z,18.86
2017-07-25T00:26:35.469Z,18.9
2017-07-25T00:27:16.369Z,18.93
2017-07-25T00:27:57.283Z,18.84
2017-07-25T00:28:38.177Z,18.9
2017-07-25T00:29:19.070Z,18.89
2017-07-25T00:29:59.955Z,18.95
2017-07-25T00:30:40.837Z,18.8
2017-07-25T00:31:21.733Z,18.75
2017-07-25T00:32:02.627Z,18.77
2017-07-25T00:32:43.523Z,18.81
2017-07-25T00:33:24.422Z,18.77
2017-07-25T00:34:05.304Z,18.81
2017-07-25T00:34:46.200Z,18.74
2017-07-25T00:35:27.099Z,18.71
2017-07-25T00:36:07.967Z,18.77
2017-07-25T00:36:48.863Z,18.84
2017-07-25T00:37:29.745Z,18.86
2017-07-25T00:38:10.632Z,18.81
2017-07-25T00:38:51.506Z,18.74
2017-07-25T00:39:32.444Z,18.78
2017-07-25T00:40:13.325Z,18.74
2017-07-25T00:40:54.217Z,18.8
2017-07-25T00:41:35.105Z,18.78
2017-07-25T00:42:15.988Z,18.84
2017-07-25T00:42:56.869Z,18.92
2017-07-25T00:43:37.782Z,18.89
2017-07-25T00:44:18.663Z,18.83
2017-07-25T00:44:59.538Z,18.77
2017-07-25T00:45:40.426Z,18.73
2017-07-25T00:46:21.320Z,18.81
2017-07-25T00:47:02.209Z,18.74
2017-07-25T00:47:43.105Z,18.78
2017-07-25T00:48:23.997Z,18.9
2017-07-25T00:49:04.889Z,18.77
2017-07-25T00:49:45.782Z,18.81
2017-07-25T00:50:26.687Z,18.86
2017-07-25T00:51:07.567Z,18.95
2017-07-25T00:51:48.453Z,18.92
2017-07-25T00:52:29.344Z,18.92
2017-07-25T00:53:10.239Z,18.98
2017-07-25T00:53:51.127Z,18.89
2017-07-25T00:54:32.027Z,18.88
2017-07-25T00:55:12.931Z,18.86
2017-07-25T00:55:53.837Z,19
2017-07-25T00:56:34.728Z,18.89
2017-07-25T00:57:15.624Z,18.93
2017-07-25T00:57:56.517Z,18.89
2017-07-25T00:58:37.385Z,18.86
2017-07-25T00:59:18.264Z,18.93
2017-07-25T00:59:59.172Z,18.92
2017-07-25T01:00:40.066Z,18.88
2017-07-25T01:01:20.961Z,18.93
2017-07-25T01:02:01.852Z,18.9
2017-07-25T01:02:42.747Z,18.89
2017-07-25T01:03:23.632Z,18.96
2017-07-25T01:04:04.526Z,18.71
2017-07-25T01:04:45.430Z,18.84
2017-07-25T01:05:26.311Z,18.75
2017-07-25T01:06:07.203Z,18.66
2017-07-25T01:06:48.090Z,18.71
2017-07-25T01:07:28.974Z,18.63
2017-07-25T01:08:09.894Z,18.63
2017-07-25T01:08:50.783Z,18.6
2017-07-25T01:09:31.682Z,18.62
2017-07-25T01:10:12.606Z,18.73
2017-07-25T01:10:53.495Z,18.53
2017-07-25T01:11:34.388Z,18.59
2017-07-25T01:12:15.278Z,18.71
2017-07-25T01:12:56.168Z,18.8
2017-07-25T01:13:37.059Z,18.74
2017-07-25T01:14:17.953Z,18.8
2017-07-25T01:14:58.857Z,18.77
2017-07-25T01:15:39.756Z,18.86
2017-07-25T01:16:20.638Z,18.83
2017-07-25T01:17:01.534Z,18.86
2017-07-25T01:17:42.424Z,18.81
2017-07-25T01:18:23.307Z,18.83
2017-07-25T01:19:04.200Z,18.86
2017-07-25T01:19:45.093Z,18.59
2017-07-25T01:20:25.997Z,18.73
2017-07-25T01:21:06.884Z,18.78
2017-07-25T01:21:47.776Z,18.68
2017-07-25T01:22:28.664Z,18.68
2017-07-25T01:23:09.560Z,18.81
2017-07-25T01:23:50.447Z,18.78
2017-07-25T01:24:31.334Z,18.75
2017-07-25T01:25:12.227Z,18.7
2017-07-25T01:25:53.124Z,18.75
2017-07-25T01:26:34.015Z,18.68
2017-07-25T01:27:14.912Z,18.71
2017-07-25T01:27:55.827Z,18.8
2017-07-25T01:28:36.724Z,18.71
2017-07-25T01:29:17.614Z,18.73
2017-07-25T01:29:58.511Z,18.66
2017-07-25T01:30:39.419Z,18.58
2017-07-25T01:31:20.309Z,18.47
2017-07-25T01:32:01.202Z,18.55
2017-07-25T01:32:42.099Z,18.44
2017-07-25T01:33:23.055Z,18.38
2017-07-25T01:34:03.969Z,18.25
2017-07-25T01:34:44.863Z,18.37
2017-07-25T01:35:25.754Z,18.33
2017-07-25T01:36:06.634Z,18.38
2017-07-25T01:36:47.528Z,18.47
2017-07-25T01:37:28.421Z,18.45
2017-07-25T01:38:09.310Z,18.52
2017-07-25T01:38:50.211Z,18.4
2017-07-25T01:39:31.097Z,18.52
2017-07-25T01:40:11.983Z,18.47
2017-07-25T01:40:52.864Z,18.53
2017-07-25T01:41:33.758Z,18.58
2017-07-25T01:42:14.640Z,18.53
2017-07-25T01:42:55.535Z,18.5
2017-07-25T01:43:36.427Z,18.55
2017-07-25T01:44:17.317Z,18.56
2017-07-25T01:44:58.193Z,18.5
2017-07-25T01:45:39.117Z,18.44
2017-07-25T01:46:20.009Z,18.38
2017-07-25T01:47:00.898Z,18.5
2017-07-25T01:47:41.794Z,18.53
2017-07-25T01:48:22.679Z,18.53
2017-07-25T01:49:03.573Z,18.49
2017-07-25T01:49:44.477Z,18.5
2017-07-25T01:50:25.361Z,18.63
2017-07-25T01:51:06.256Z,18.7
2017-07-25T01:51:47.139Z,18.71
2017-07-25T01:52:28.017Z,18.59
2017-07-25T01:53:08.910Z,18.53
2017-07-25T01:53:49.807Z,18.6
2017-07-25T01:54:30.714Z,18.58
2017-07-25T01:55:11.605Z,18.6
2017-07-25T01:55:52.498Z,18.55
2017-07-25T01:56:33.389Z,18.59
2017-07-25T01:57:14.269Z,18.6
2017-07-25T01:57:55.164Z,18.44
2017-07-25T01:58:36.050Z,18.4
2017-07-25T01:59:16.956Z,18.41
2017-07-25T01:59:57.846Z,18.37
2017-07-25T02:00:38.768Z,18.4
2017-07-25T02:01:19.666Z,18.34
2017-07-25T02:02:00.560Z,18.18
2017-07-25T02:02:41.467Z,18.23
2017-07-25T02:03:22.364Z,18.29
2017-07-25T02:04:03.243Z,18.13
2017-07-25T02:04:44.129Z,18.08
2017-07-25T02:05:25.012Z,17.94
2017-07-25T02:06:05.908Z,17.97
2017-07-25T02:06:46.800Z,18.03
2017-07-25T02:07:27.688Z,18.04
2017-07-25T02:08:08.566Z,18.01
2017-07-25T02:08:49.457Z,17.98
2017-07-25T02:09:30.354Z,17.97
2017-07-25T02:10:11.244Z,17.8
2017-07-25T02:10:52.128Z,17.9
2017-07-25T02:11:33.019Z,17.8
2017-07-25T02:12:13.922Z,17.89
2017-07-25T02:12:54.804Z,17.89
2017-07-25T02:13:35.704Z,17.83
2017-07-25T02:14:16.595Z,17.95
2017-07-25T02:14:57.478Z,17.83
2017-07-25T02:15:38.371Z,17.79
2017-07-25T02:16:19.253Z,17.85
2017-07-25T02:17:00.143Z,17.83
2017-07-25T02:17:41.047Z,17.89
2017-07-25T02:18:21.947Z,17.8
2017-07-25T02:19:02.831Z,17.78
2017-07-25T02:19:43.722Z,17.76
2017-07-25T02:20:24.609Z,17.72
2017-07-25T02:21:05.504Z,17.68
2017-07-25T02:21:46.390Z,17.82
2017-07-25T02:22:27.280Z,17.8
2017-07-25T02:23:08.172Z,17.8
2017-07-25T02:23:49.065Z,17.85
2017-07-25T02:24:29.963Z,17.83
2017-07-25T02:25:10.859Z,17.83
2017-07-25T02:25:51.745Z,17.89
2017-07-25T02:26:32.632Z,17.74
2017-07-25T02:27:13.513Z,17.82
2017-07-25T02:27:54.398Z,17.85
2017-07-25T02:28:35.300Z,17.85
2017-07-25T02:29:16.186Z,17.82
2017-07-25T02:29:57.079Z,17.83
2017-07-25T02:30:37.971Z,17.83
2017-07-25T02:31:18.877Z,17.72
2017-07-25T02:31:59.773Z,17.72
2017-07-25T02:32:40.664Z,17.78
2017-07-25T02:33:21.557Z,17.71
2017-07-25T02:34:02.454Z,17.67
2017-07-25T02:34:43.335Z,17.64
2017-07-25T02:35:24.223Z,17.78
2017-07-25T02:36:05.113Z,17.7
2017-07-25T02:36:46.009Z,17.76
2017-07-25T02:37:26.898Z,17.79
2017-07-25T02:38:07.787Z,17.79
2017-07-25T02:38:48.688Z,17.72
2017-07-25T02:39:29.573Z,17.74
2017-07-25T02:40:10.464Z,17.79
2017-07-25T02:40:51.375Z,17.71
2017-07-25T02:41:32.258Z,17.67
2017-07-25T02:42:13.161Z,17.71
2017-07-25T02:42:54.043Z,17.68
2017-07-25T02:43:34.938Z,17.57
2017-07-25T02:44:15.878Z,17.63
2017-07-25T02:44:56.727Z,17.57
2017-07-25T02:45:37.622Z,17.6
2017-07-25T02:46:18.514Z,17.56
2017-07-25T02:46:59.411Z,17.65
2017-07-25T02:47:40.295Z,17.57
2017-07-25T02:48:21.191Z,17.72
2017-07-25T02:49:02.090Z,17.76
2017-07-25T02:49:42.990Z,17.63
2017-07-25T02:50:23.882Z,17.67
2017-07-25T02:51:04.794Z,17.63
2017-07-25T02:51:45.686Z,17.65
2017-07-25T02:52:26.590Z,17.72
2017-07-25T02:53:07.482Z,17.7
2017-07-25T02:53:48.375Z,17.68
2017-07-25T02:54:29.264Z,17.74
2017-07-25T02:55:10.160Z,17.78
2017-07-25T02:55:51.056Z,17.79
2017-07-25T02:56:31.946Z,17.82
2017-07-25T02:57:12.838Z,17.86
2017-07-25T02:57:53.736Z,17.72
2017-07-25T02:58:34.632Z,17.7
2017-07-25T02:59:15.523Z,17.8
2017-07-25T02:59:56.416Z,17.72
2017-07-25T03:00:37.294Z,17.64
2017-07-25T03:01:18.177Z,17.67
2017-07-25T03:01:59.070Z,17.76
2017-07-25T03:02:39.968Z,17.68
2017-07-25T03:03:20.839Z,17.63
2017-07-25T03:04:01.727Z,17.48
2017-07-25T03:04:42.628Z,17.49
2017-07-25T03:05:23.518Z,17.6
2017-07-25T03:06:04.414Z,17.65
2017-07-25T03:06:45.317Z,17.6
2017-07-25T03:07:26.201Z,17.68
2017-07-25T03:08:07.106Z,17.72
2017-07-25T03:08:48.045Z,17.79
2017-07-25T03:09:28.957Z,17.63
2017-07-25T03:10:09.832Z,17.63
2017-07-25T03:10:50.721Z,17.64
2017-07-25T03:11:31.601Z,17.59
2017-07-25T03:12:12.492Z,17.59
2017-07-25T03:12:53.378Z,17.36
2017-07-25T03:13:34.269Z,17.41
2017-07-25T03:14:15.166Z,17.24
2017-07-25T03:14:56.062Z,17.26
2017-07-25T03:15:36.976Z,17.27
2017-07-25T03:16:17.870Z,17.26
2017-07-25T03:16:58.762Z,17.16
2017-07-25T03:17:39.665Z,17.29
2017-07-25T03:18:20.548Z,17.27
2017-07-25T03:19:01.438Z,17.34
2017-07-25T03:19:42.335Z,17.27
2017-07-25T03:20:23.240Z,17.23
2017-07-25T03:21:04.130Z,17.26
2017-07-25T03:21:45.017Z,17.16
2017-07-25T03:22:25.894Z,17.31
2017-07-25T03:23:06.774Z,17.24
2017-07-25T03:23:47.688Z,17.22
2017-07-25T03:24:28.574Z,17.12
2017-07-25T03:25:09.475Z,17.15
2017-07-25T03:25:50.363Z,17.19
2017-07-25T03:26:31.256Z,17.22
2017-07-25T03:27:12.151Z,17.22
2017-07-25T03:27:53.043Z,17.23
2017-07-25T03:28:33.942Z,17.23
2017-07-25T03:29:14.829Z,17.22
2017-07-25T03:29:55.733Z,17.31
2017-07-25T03:30:36.606Z,17.27
2017-07-25T03:31:17.501Z,17.27
2017-07-25T03:31:58.392Z,17.29
2017-07-25T03:32:39.291Z,17.27
2017-07-25T03:33:20.185Z,17.23
2017-07-25T03:34:01.082Z,17.16
2017-07-25T03:34:41.970Z,17.14
2017-07-25T03:35:22.866Z,17.11
2017-07-25T03:36:03.764Z,17.23
2017-07-25T03:36:44.650Z,17.24
2017-07-25T03:37:25.542Z,17.29
2017-07-25T03:38:06.440Z,17.15
2017-07-25T03:38:47.329Z,17.15
2017-07-25T03:39:28.221Z,17.11
2017-07-25T03:40:09.124Z,17.08
2017-07-25T03:40:50.019Z,17.09
2017-07-25T03:41:30.913Z,17.05
2017-07-25T03:42:11.789Z,17.05
2017-07-25T03:42:52.679Z,17.06
2017-07-25T03:43:33.571Z,17.19
2017-07-25T03:44:14.455Z,17.05
2017-07-25T03:44:55.366Z,17.01
2017-07-25T03:45:36.251Z,17.08
2017-07-25T03:46:17.142Z,17.08
2017-07-25T03:46:58.066Z,17.04
2017-07-25T03:47:38.950Z,17.14
2017-07-25T03:48:19.843Z,17.15
2017-07-25T03:49:00.745Z,17.09
2017-07-25T03:49:41.640Z,17.14
2017-07-25T03:50:22.520Z,17.15
2017-07-25T03:51:03.421Z,17.15
2017-07-25T03:51:44.315Z,17.16
2017-07-25T03:52:25.201Z,17.22
2017-07-25T03:53:06.094Z,17.19
2017-07-25T03:53:46.985Z,17.19
2017-07-25T03:54:27.872Z,17.22
2017-07-25T03:55:08.764Z,17.27
2017-07-25T03:55:49.652Z,17.27
2017-07-25T03:56:30.538Z,17.31
2017-07-25T03:57:11.421Z,17.3
2017-07-25T03:57:52.316Z,17.29
2017-07-25T03:58:33.206Z,17.24
2017-07-25T03:59:14.107Z,17.26
2017-07-25T03:59:54.996Z,17.23
2017-07-25T04:00:35.909Z,17.19
2017-07-25T04:01:16.776Z,17.23
2017-07-25T04:01:57.684Z,17.16
2017-07-25T04:02:38.553Z,17.15
2017-07-25T04:03:19.438Z,17.22
2017-07-25T04:04:00.333Z,17.15
2017-07-25T04:04:41.223Z,17.26
2017-07-25T04:05:22.116Z,17.2
2017-07-25T04:06:03.011Z,17.05
2017-07-25T04:06:43.904Z,17.12
2017-07-25T04:07:24.787Z,17.06
2017-07-25T04:08:05.674Z,17.16
2017-07-25T04:08:46.568Z,17.08
2017-07-25T04:09:27.467Z,17.24
2017-07-25T04:10:08.369Z,17.2
2017-07-25T04:10:49.266Z,17.12
2017-07-25T04:11:30.153Z,17.11
2017-07-25T04:12:11.046Z,17.2
2017-07-25T04:12:51.953Z,17.29
2017-07-25T04:13:32.835Z,17.24
2017-07-25T04:14:13.728Z,17.16
2017-07-25T04:14:54.623Z,17.15
2017-07-25T04:15:35.507Z,17.11
2017-07-25T04:16:16.398Z,17.14
2017-07-25T04:16:57.289Z,17.08
2017-07-25T04:17:38.184Z,17.16
2017-07-25T04:18:19.085Z,17.12
2017-07-25T04:18:59.981Z,17.11
2017-07-25T04:19:41.500Z,17.15
2017-07-25T04:20:22.392Z,17.19
2017-07-25T04:21:03.278Z,17.06
2017-07-25T04:21:44.181Z,17.11
2017-07-25T04:22:25.068Z,17.11
2017-07-25T04:23:05.947Z,17.08
2017-07-25T04:23:46.878Z,17.11
2017-07-25T04:24:27.751Z,17.16
2017-07-25T04:25:08.638Z,17.08
2017-07-25T04:25:49.533Z,17.11
2017-07-25T04:26:30.438Z,17.2
2017-07-25T04:27:11.338Z,17.16
2017-07-25T04:27:52.225Z,17.16
2017-07-25T04:28:33.119Z,17.09
2017-07-25T04:29:14.019Z,17.12
2017-07-25T04:29:54.893Z,17.05
2017-07-25T04:30:35.797Z,17.09
2017-07-25T04:31:16.701Z,17.08
2017-07-25T04:31:57.587Z,17.04
2017-07-25T04:32:38.489Z,17.04
2017-07-25T04:33:19.380Z,17.09
2017-07-25T04:34:00.279Z,17.09
2017-07-25T04:34:41.164Z,17.12
2017-07-25T04:35:22.061Z,17.11
2017-07-25T04:36:02.956Z,17.19
2017-07-25T04:36:43.842Z,17.26
2017-07-25T04:37:24.731Z,17.27
2017-07-25T04:38:05.615Z,17.29
2017-07-25T04:38:46.506Z,17.29
2017-07-25T04:39:27.397Z,17.38
2017-07-25T04:40:08.290Z,17.26
2017-07-25T04:40:49.179Z,17.22
2017-07-25T04:41:30.080Z,17.33
2017-07-25T04:42:10.974Z,17.34
2017-07-25T04:42:51.865Z,17.31
2017-07-25T04:43:32.757Z,17.29
2017-07-25T04:44:13.646Z,17.3
2017-07-25T04:44:54.546Z,17.31
2017-07-25T04:45:35.422Z,17.36
2017-07-25T04:46:16.315Z,17.38
2017-07-25T04:46:57.214Z,17.29
2017-07-25T04:47:38.098Z,17.23
2017-07-25T04:48:18.990Z,17.24
2017-07-25T04:48:59.877Z,17.23
2017-07-25T04:49:40.797Z,17.31
2017-07-25T04:50:21.688Z,17.31
2017-07-25T04:51:02.576Z,17.36
2017-07-25T04:51:43.483Z,17.38
2017-07-25T04:52:24.364Z,17.34
2017-07-25T04:53:05.248Z,17.38
2017-07-25T04:53:46.147Z,17.36
2017-07-25T04:54:27.039Z,17.51
2017-07-25T04:55:07.932Z,17.57
2017-07-25T04:55:48.828Z,17.64
2017-07-25T04:56:29.719Z,17.52
2017-07-25T04:57:10.628Z,17.46
2017-07-25T04:57:51.530Z,17.44
2017-07-25T04:58:32.411Z,17.39
2017-07-25T04:59:13.304Z,17.24
2017-07-25T04:59:54.197Z,17.27
2017-07-25T05:00:35.104Z,17.41
2017-07-25T05:01:15.993Z,17.39
2017-07-25T05:01:56.873Z,17.34
2017-07-25T05:02:37.764Z,17.42
2017-07-25T05:03:18.651Z,17.34
2017-07-25T05:03:59.534Z,17.3
2017-07-25T05:04:40.497Z,17.31
2017-07-25T05:05:58.400Z,17.34
2017-07-25T05:06:39.288Z,17.51
2017-07-25T05:07:20.185Z,17.36
2017-07-25T05:08:01.063Z,17.33
2017-07-25T05:08:41.952Z,17.36
2017-07-25T05:09:22.836Z,17.41
2017-07-25T05:10:03.719Z,17.36
2017-07-25T05:10:44.608Z,17.39
2017-07-25T05:11:25.498Z,17.46
2017-07-25T05:12:06.374Z,17.39
2017-07-25T05:12:47.250Z,17.31
2017-07-25T05:13:28.139Z,17.19
2017-07-25T05:14:09.022Z,17.16
2017-07-25T05:14:49.902Z,17.23
2017-07-25T05:15:30.816Z,17.26
2017-07-25T05:16:11.701Z,17.24
2017-07-25T05:16:52.582Z,17.36
2017-07-25T05:17:33.466Z,17.39
2017-07-25T05:18:14.353Z,17.49
2017-07-25T05:18:55.235Z,17.45
2017-07-25T05:19:36.115Z,17.42
2017-07-25T05:20:16.995Z,17.39
2017-07-25T05:20:57.883Z,17.42
2017-07-25T05:21:38.795Z,17.34
2017-07-25T05:22:19.702Z,17.34
2017-07-25T05:23:00.587Z,17.34
2017-07-25T05:23:41.469Z,17.31
2017-07-25T05:24:22.350Z,17.22
2017-07-25T05:25:03.242Z,17.24
2017-07-25T05:25:44.149Z,17.26
2017-07-25T05:26:25.040Z,17.16
2017-07-25T05:27:05.931Z,17.06
2017-07-25T05:27:46.813Z,17.04
2017-07-25T05:28:27.730Z,17.02
2017-07-25T05:29:08.622Z,17.14
2017-07-25T05:29:49.554Z,17.15
2017-07-25T05:30:30.429Z,17.05
2017-07-25T05:31:11.316Z,17.06
2017-07-25T05:31:52.222Z,17.04
2017-07-25T05:32:33.106Z,17.04
2017-07-25T05:33:13.986Z,17.19
2017-07-25T05:33:54.890Z,17.27
2017-07-25T05:34:35.810Z,17.08
2017-07-25T05:35:16.704Z,17.08
2017-07-25T05:35:57.605Z,17.11
2017-07-25T05:36:38.480Z,17.06
2017-07-25T05:37:19.366Z,17.12
2017-07-25T05:38:00.269Z,17.06
2017-07-25T05:38:41.164Z,16.93
2017-07-25T05:39:22.046Z,16.9
2017-07-25T05:40:02.937Z,16.93
2017-07-25T05:40:43.829Z,16.79
2017-07-25T05:41:24.694Z,17.12
2017-07-25T05:42:05.569Z,17.04
2017-07-25T05:42:46.460Z,17.01
2017-07-25T05:43:27.349Z,16.94
2017-07-25T05:44:08.226Z,16.94
2017-07-25T05:44:49.160Z,17.05
2017-07-25T05:45:30.047Z,16.96
2017-07-25T05:46:10.923Z,17.08
2017-07-25T05:46:51.806Z,17.05
2017-07-25T05:47:32.692Z,17.04
2017-07-25T05:48:13.574Z,17.11
2017-07-25T05:48:54.447Z,17.27
2017-07-25T05:49:35.348Z,17.11
2017-07-25T05:50:16.232Z,16.99
2017-07-25T05:50:57.120Z,16.84
2017-07-25T05:51:37.989Z,16.79
2017-07-25T05:52:18.882Z,17.04
2017-07-25T05:52:59.786Z,16.94
2017-07-25T05:53:40.648Z,16.96
2017-07-25T05:54:21.527Z,16.91
2017-07-25T05:55:02.439Z,16.94
2017-07-25T05:55:43.326Z,16.89
2017-07-25T05:56:24.201Z,16.9
2017-07-25T05:57:05.091Z,17.02
2017-07-25T05:57:45.997Z,17.04
2017-07-25T05:58:26.868Z,16.94
2017-07-25T05:59:07.762Z,17.04
2017-07-25T05:59:48.653Z,16.99
2017-07-25T06:00:29.538Z,17.01
2017-07-25T06:01:10.407Z,17.02
2017-07-25T06:01:51.295Z,17.09
2017-07-25T06:02:32.183Z,17.22
2017-07-25T06:03:13.067Z,17.15
2017-07-25T06:03:53.943Z,17.27
2017-07-25T06:04:34.935Z,17.24
2017-07-25T06:06:28.584Z,17.05
2017-07-25T06:07:09.498Z,17.02
2017-07-25T06:07:50.383Z,17.14
2017-07-25T06:08:31.254Z,17.12
2017-07-25T06:09:12.140Z,17.04
2017-07-25T06:09:53.028Z,17.11
2017-07-25T06:10:33.917Z,17.06
2017-07-25T06:11:14.804Z,17.11
2017-07-25T06:11:55.711Z,17.06
2017-07-25T06:12:36.592Z,16.93
2017-07-25T06:13:17.492Z,16.93
2017-07-25T06:13:58.379Z,17.05
2017-07-25T06:14:39.261Z,17.08
2017-07-25T06:15:20.188Z,16.99
2017-07-25T06:16:01.067Z,17.08
2017-07-25T06:16:41.954Z,17.24
2017-07-25T06:17:22.849Z,17.14
2017-07-25T06:18:03.750Z,17.09
2017-07-25T06:18:44.644Z,17.12
2017-07-25T06:20:23.050Z,17.08
2017-07-25T06:21:03.939Z,16.97
2017-07-25T06:21:44.830Z,16.89
2017-07-25T06:22:25.714Z,16.94
2017-07-25T06:23:06.601Z,16.91
2017-07-25T06:23:47.506Z,17.06
2017-07-25T06:24:28.389Z,17.01
2017-07-25T06:25:09.283Z,16.9
2017-07-25T06:25:50.176Z,16.99
2017-07-25T06:26:31.062Z,17.06
2017-07-25T06:27:11.953Z,17.09
2017-07-25T06:27:52.846Z,17.11
2017-07-25T06:28:33.732Z,16.94
2017-07-25T06:29:14.622Z,16.97
2017-07-25T06:29:55.520Z,16.9
2017-07-25T06:30:36.404Z,16.87
2017-07-25T06:31:17.284Z,17.02
2017-07-25T06:31:58.244Z,17.05
2017-07-25T06:32:39.084Z,17.05
2017-07-25T06:33:19.966Z,17.04
2017-07-25T06:34:00.862Z,16.91
2017-07-25T06:34:41.749Z,16.87
2017-07-25T06:35:22.635Z,16.89
2017-07-25T06:36:03.526Z,17.02
2017-07-25T06:36:44.418Z,16.91
2017-07-25T06:37:25.330Z,16.86
2017-07-25T06:38:06.244Z,16.91
2017-07-25T06:38:47.126Z,16.96
2017-07-25T06:39:28.016Z,17.12
2017-07-25T06:40:08.914Z,17.11
2017-07-25T06:40:49.843Z,17.05
2017-07-25T06:41:30.730Z,17.11
2017-07-25T06:42:11.620Z,17.09
2017-07-25T06:42:52.508Z,17.02
2017-07-25T06:43:33.408Z,17.14
2017-07-25T06:44:14.306Z,17.3
2017-07-25T06:44:55.196Z,17.23
2017-07-25T06:45:36.090Z,17.16
2017-07-25T06:46:16.974Z,17.19
2017-07-25T06:46:57.857Z,17.15
2017-07-25T06:47:38.733Z,17.19
2017-07-25T06:48:19.625Z,17.14
2017-07-25T06:49:00.510Z,17.22
2017-07-25T06:49:41.405Z,17.14
2017-07-25T06:50:22.297Z,17.08
2017-07-25T06:51:03.182Z,17.19
2017-07-25T06:51:44.077Z,17.24
2017-07-25T06:52:24.960Z,17.34
2017-07-25T06:53:05.863Z,17.27
2017-07-25T06:53:46.766Z,17.29
2017-07-25T06:54:27.660Z,17.31
2017-07-25T06:55:08.542Z,17.06
2017-07-25T06:55:49.445Z,17.15
2017-07-25T06:56:30.341Z,17.12
2017-07-25T06:57:11.237Z,17.16
2017-07-25T06:57:52.131Z,17.04
2017-07-25T06:58:33.027Z,17.11
2017-07-25T06:59:13.922Z,17.06
2017-07-25T06:59:54.800Z,17.08
2017-07-25T07:00:35.708Z,17.11
2017-07-25T07:01:16.598Z,17.15
2017-07-25T07:01:57.493Z,17.26
2017-07-25T07:02:38.387Z,17.33
2017-07-25T07:03:19.272Z,17.23
2017-07-25T07:04:00.154Z,17.26
2017-07-25T07:04:41.035Z,17.44
2017-07-25T07:05:21.947Z,17.23
2017-07-25T07:06:02.847Z,17.12
2017-07-25T07:06:43.736Z,17.19
2017-07-25T07:07:24.641Z,17.12
2017-07-25T07:08:05.524Z,16.97
2017-07-25T07:08:46.408Z,16.99
2017-07-25T07:09:27.318Z,17.06
2017-07-25T07:10:08.202Z,17.04
2017-07-25T07:10:49.071Z,17.04
2017-07-25T07:11:29.986Z,17.11
2017-07-25T07:12:10.853Z,17.04
2017-07-25T07:12:51.738Z,17.27
2017-07-25T07:13:32.626Z,17.06
2017-07-25T07:14:13.517Z,17.16
2017-07-25T07:14:54.409Z,17.24
2017-07-25T07:15:35.297Z,17.23
2017-07-25T07:16:16.183Z,17.2
2017-07-25T07:16:57.064Z,17.16
2017-07-25T07:17:37.972Z,17.11
2017-07-25T07:18:18.859Z,17.23
2017-07-25T07:18:59.743Z,17.15
2017-07-25T07:19:40.632Z,17.36
2017-07-25T07:20:21.534Z,17.34
2017-07-25T07:21:02.421Z,17.34
2017-07-25T07:21:43.319Z,17.56
2017-07-25T07:22:24.209Z,17.49
2017-07-25T07:23:05.111Z,17.33
2017-07-25T07:23:45.999Z,17.24
2017-07-25T07:24:26.893Z,17.05
2017-07-25T07:25:07.790Z,17.05
2017-07-25T07:25:48.676Z,16.97
2017-07-25T07:26:29.568Z,17.14
2017-07-25T07:27:10.455Z,17.08
2017-07-25T07:27:51.349Z,17.09
2017-07-25T07:28:32.240Z,16.93
2017-07-25T07:29:13.134Z,16.84
2017-07-25T07:29:54.029Z,16.84
2017-07-25T07:30:34.922Z,16.94
2017-07-25T07:31:15.809Z,17.05
2017-07-25T07:31:56.700Z,17.16
2017-07-25T07:32:37.591Z,17.24
2017-07-25T07:33:18.476Z,17.27
2017-07-25T07:33:59.359Z,17.19
2017-07-25T07:34:40.263Z,17.02
2017-07-25T07:35:21.147Z,17.09
2017-07-25T07:36:02.036Z,17.06
2017-07-25T07:36:42.928Z,17.05
2017-07-25T07:37:23.817Z,17.09
2017-07-25T07:38:04.703Z,16.94
2017-07-25T07:38:45.592Z,16.99
2017-07-25T07:39:26.482Z,16.87
2017-07-25T07:40:07.375Z,17.05
2017-07-25T07:40:48.263Z,17.09
2017-07-25T07:41:29.158Z,17.06
2017-07-25T07:42:10.052Z,17.05
2017-07-25T07:42:50.939Z,17.06
2017-07-25T07:43:31.833Z,17.11
2017-07-25T07:44:12.734Z,17.11
2017-07-25T07:44:53.621Z,17.15
2017-07-25T07:45:34.520Z,17.05
2017-07-25T07:46:15.403Z,17.04
2017-07-25T07:46:56.290Z,17.05
2017-07-25T07:47:37.196Z,17.01
2017-07-25T07:48:18.071Z,17.02
2017-07-25T07:48:58.971Z,17.08
2017-07-25T07:49:39.880Z,17.06
2017-07-25T07:50:20.738Z,17.12
2017-07-25T07:51:01.642Z,17.01
2017-07-25T07:51:42.533Z,17.09
2017-07-25T07:52:23.431Z,17.09
2017-07-25T07:53:04.321Z,17.02
2017-07-25T07:53:45.207Z,17.05
2017-07-25T07:54:26.087Z,17.05
2017-07-25T07:55:06.982Z,16.97
2017-07-25T07:55:47.887Z,17.04
2017-07-25T07:56:28.772Z,17.05
2017-07-25T07:57:09.647Z,17.04
2017-07-25T07:57:50.530Z,17.15
2017-07-25T07:58:31.419Z,17.09
2017-07-25T07:59:12.312Z,16.96
2017-07-25T07:59:53.201Z,16.97
2017-07-25T08:00:34.098Z,16.91
2017-07-25T08:01:14.989Z,17.09
2017-07-25T08:01:55.886Z,17.04
2017-07-25T08:02:36.781Z,17.2
2017-07-25T08:03:17.691Z,17.23
2017-07-25T08:03:58.580Z,17.24
2017-07-25T08:04:40.421Z,17.3
2017-07-25T08:05:21.312Z,17.15
2017-07-25T08:06:02.226Z,17.12
2017-07-25T08:06:43.130Z,17.14
2017-07-25T08:07:24.016Z,17.15
2017-07-25T08:08:04.911Z,17.26
2017-07-25T08:08:45.794Z,17.26
2017-07-25T08:09:26.688Z,17.19
2017-07-25T08:10:07.581Z,17.01
2017-07-25T08:10:48.506Z,17.05
2017-07-25T08:11:29.416Z,17.12
2017-07-25T08:12:10.286Z,17.12
2017-07-25T08:12:51.181Z,17.26
2017-07-25T08:13:32.067Z,17.26
2017-07-25T08:14:12.963Z,17.24
2017-07-25T08:14:53.870Z,17.27
2017-07-25T08:15:34.770Z,17.24
2017-07-25T08:16:15.659Z,17.11
2017-07-25T08:16:56.550Z,17.08
2017-07-25T08:17:37.449Z,16.91
2017-07-25T08:18:18.322Z,16.86
2017-07-25T08:18:59.220Z,16.79
2017-07-25T08:19:40.089Z,16.97
2017-07-25T08:20:20.989Z,17.02
2017-07-25T08:21:01.884Z,17.11
2017-07-25T08:21:42.798Z,17.09
2017-07-25T08:22:23.684Z,17.27
2017-07-25T08:23:04.590Z,17.16
2017-07-25T08:23:45.466Z,17.05
2017-07-25T08:24:26.356Z,17.16
2017-07-25T08:25:07.244Z,17.31
2017-07-25T08:25:48.136Z,17.27
2017-07-25T08:26:29.023Z,17.48
2017-07-25T08:27:09.915Z,17.22
2017-07-25T08:27:50.807Z,17.38
2017-07-25T08:28:31.689Z,17.38
2017-07-25T08:29:12.589Z,17.39
2017-07-25T08:29:53.479Z,17.41
2017-07-25T08:30:34.370Z,17.46
2017-07-25T08:31:15.266Z,17.11
2017-07-25T08:31:56.155Z,17.09
2017-07-25T08:32:37.038Z,17.05
2017-07-25T08:33:17.915Z,17.16
2017-07-25T08:33:58.805Z,17.02
2017-07-25T08:34:39.720Z,17.23
2017-07-25T08:35:20.590Z,17.19
2017-07-25T08:36:01.489Z,17.05
2017-07-25T08:36:42.391Z,17.09
2017-07-25T08:37:23.269Z,17.16
2017-07-25T08:38:04.187Z,17.15
2017-07-25T08:38:45.093Z,17.31
2017-07-25T08:39:25.998Z,17.34
2017-07-25T08:40:06.900Z,17.41
2017-07-25T08:40:47.798Z,17.52
2017-07-25T08:41:28.698Z,17.6
2017-07-25T08:42:09.579Z,17.49
2017-07-25T08:42:50.464Z,17.36
2017-07-25T08:43:31.374Z,17.26
2017-07-25T08:44:12.238Z,17.19
2017-07-25T08:44:53.140Z,17.15
2017-07-25T08:45:34.046Z,17.31
2017-07-25T08:46:14.934Z,17.11
2017-07-25T08:46:55.820Z,16.9
2017-07-25T08:47:36.711Z,16.99
2017-07-25T08:48:17.589Z,16.84
2017-07-25T08:48:58.476Z,17.06
2017-07-25T08:49:39.380Z,17.2
2017-07-25T08:50:20.282Z,17.19